sensor_id;sensor_type;location;lat;lon;timestamp;pressure;altitude;pressure_sealevel;temperature;humidity
32320;BME280;19080;51.750;5.888;2024-02-21T00:00:14;102009.44;;;9.89;100.00
32320;BME280;19080;51.750;5.888;2024-02-21T00:02:41;102006.84;;;9.90;100.00
32320;BME280;19080;51.750;5.888;2024-02-21T00:05:08;102010.63;;;9.97;100.00
32320;BME280;19080;51.750;5.888;2024-02-21T00:07:35;102001.72;;;9.95;100.00
32320;BME280;19080;51.750;5.888;2024-02-21T00:10:02;102016.91;;;9.99;100.00
32320;BME280;19080;51.750;5.888;2024-02-21T00:12:29;101998.09;;;9.93;100.00
32320;BME280;19080;51.750;5.888;2024-02-21T00:14:56;102004.38;;;9.95;100.00
32320;BME280;19080;51.750;5.888;2024-02-21T00:17:24;101988.22;;;9.89;100.00
32320;BME280;19080;51.750;5.888;2024-02-21T00:19:52;101999.91;;;9.94;100.00
32320;BME280;19080;51.750;5.888;2024-02-21T00:22:19;101988.13;;;9.86;100.00
32320;BME280;19080;51.750;5.888;2024-02-21T00:24:46;101965.84;;;9.81;100.00
32320;BME280;19080;51.750;5.888;2024-02-21T00:27:12;101962.13;;;9.75;100.00
32320;BME280;19080;51.750;5.888;2024-02-21T00:29:39;101980.75;;;9.77;100.00
32320;BME280;19080;51.750;5.888;2024-02-21T00:32:06;101978.03;;;9.75;100.00
32320;BME280;19080;51.750;5.888;2024-02-21T00:34:33;101978.13;;;9.78;100.00
32320;BME280;19080;51.750;5.888;2024-02-21T00:37:01;101965.72;;;9.77;100.00
32320;BME280;19080;51.750;5.888;2024-02-21T00:39:28;101969.34;;;9.79;100.00
32320;BME280;19080;51.750;5.888;2024-02-21T00:41:55;101960.25;;;9.73;100.00
32320;BME280;19080;51.750;5.888;2024-02-21T00:44:22;101942.28;;;9.64;100.00
32320;BME280;19080;51.750;5.888;2024-02-21T00:46:48;101965.84;;;9.81;100.00
32320;BME280;19080;51.750;5.888;2024-02-21T00:49:15;101945.25;;;9.73;100.00
32320;BME280;19080;51.750;5.888;2024-02-21T00:51:42;101965.16;;;9.86;100.00
32320;BME280;19080;51.750;5.888;2024-02-21T00:54:09;101948.22;;;9.83;100.00
32320;BME280;19080;51.750;5.888;2024-02-21T00:56:35;101935.59;;;9.75;100.00
32320;BME280;19080;51.750;5.888;2024-02-21T00:59:02;101941.13;;;9.82;100.00
32320;BME280;19080;51.750;5.888;2024-02-21T01:01:29;101933.91;;;9.77;100.00
32320;BME280;19080;51.750;5.888;2024-02-21T01:03:56;101939.09;;;9.74;100.00
32320;BME280;19080;51.750;5.888;2024-02-21T01:06:23;101915.03;;;9.68;100.00
32320;BME280;19080;51.750;5.888;2024-02-21T01:08:50;101930.94;;;9.68;100.00
32320;BME280;19080;51.750;5.888;2024-02-21T01:11:17;101947.47;;;9.61;100.00
32320;BME280;19080;51.750;5.888;2024-02-21T01:13:44;101948.31;;;9.60;100.00
32320;BME280;19080;51.750;5.888;2024-02-21T01:16:10;101951.91;;;9.62;100.00
32320;BME280;19080;51.750;5.888;2024-02-21T01:18:38;101951.91;;;9.62;100.00
32320;BME280;19080;51.750;5.888;2024-02-21T01:21:07;101945.75;;;9.63;100.00
32320;BME280;19080;51.750;5.888;2024-02-21T01:23:35;101945.03;;;9.67;100.00
32320;BME280;19080;51.750;5.888;2024-02-21T01:26:03;101936.84;;;9.61;100.00
32320;BME280;19080;51.750;5.888;2024-02-21T01:28:30;101930.09;;;9.69;100.00
32320;BME280;19080;51.750;5.888;2024-02-21T01:30:57;101942.72;;;9.76;100.00
32320;BME280;19080;51.750;5.888;2024-02-21T01:33:24;101921.28;;;9.70;100.00
32320;BME280;19080;51.750;5.888;2024-02-21T01:35:50;101931.25;;;9.77;100.00
32320;BME280;19080;51.750;5.888;2024-02-21T01:38:17;101913.44;;;9.73;100.00
32320;BME280;19080;51.750;5.888;2024-02-21T01:40:44;101915.19;;;9.73;100.00
32320;BME280;19080;51.750;5.888;2024-02-21T01:43:19;101893.59;;;9.62;100.00
32320;BME280;19080;51.750;5.888;2024-02-21T01:45:50;101893.44;;;9.58;100.00
32320;BME280;19080;51.750;5.888;2024-02-21T01:48:17;101893.81;;;9.68;100.00
32320;BME280;19080;51.750;5.888;2024-02-21T01:50:45;101880.34;;;9.62;100.00
32320;BME280;19080;51.750;5.888;2024-02-21T01:53:18;101875.16;;;9.65;100.00
32320;BME280;19080;51.750;5.888;2024-02-21T01:55:46;101882.25;;;9.66;100.00
32320;BME280;19080;51.750;5.888;2024-02-21T01:58:14;101889.41;;;9.69;100.00
32320;BME280;19080;51.750;5.888;2024-02-21T02:00:42;101854.69;;;9.61;100.00
32320;BME280;19080;51.750;5.888;2024-02-21T02:03:13;101868.31;;;9.72;100.00
32320;BME280;19080;51.750;5.888;2024-02-21T02:05:48;101875.63;;;9.79;100.00
32320;BME280;19080;51.750;5.888;2024-02-21T02:08:24;101883.63;;;9.81;100.00
32320;BME280;19080;51.750;5.888;2024-02-21T02:10:51;101845.88;;;9.62;100.00
32320;BME280;19080;51.750;5.888;2024-02-21T02:13:18;101886.41;;;9.84;100.00
32320;BME280;19080;51.750;5.888;2024-02-21T02:15:48;101885.44;;;9.82;100.00
32320;BME280;19080;51.750;5.888;2024-02-21T02:18:16;101891.84;;;9.88;100.00
32320;BME280;19080;51.750;5.888;2024-02-21T02:20:44;101882.78;;;9.82;100.00
32320;BME280;19080;51.750;5.888;2024-02-21T02:23:26;101879.41;;;9.86;100.00
32320;BME280;19080;51.750;5.888;2024-02-21T02:25:53;101869.69;;;9.86;100.00
32320;BME280;19080;51.750;5.888;2024-02-21T02:28:20;101862.47;;;9.82;100.00
32320;BME280;19080;51.750;5.888;2024-02-21T02:30:48;101868.78;;;9.86;100.00
32320;BME280;19080;51.750;5.888;2024-02-21T02:33:15;101851.94;;;9.84;100.00
32320;BME280;19080;51.750;5.888;2024-02-21T02:35:44;101856.38;;;9.85;100.00
32320;BME280;19080;51.750;5.888;2024-02-21T02:38:12;101845.78;;;9.85;100.00
32320;BME280;19080;51.750;5.888;2024-02-21T02:40:40;101819.63;;;9.70;100.00
32320;BME280;19080;51.750;5.888;2024-02-21T02:43:08;101830.66;;;9.82;100.00
32320;BME280;19080;51.750;5.888;2024-02-21T02:45:35;101821.06;;;9.86;100.00
32320;BME280;19080;51.750;5.888;2024-02-21T02:48:01;101817.44;;;9.84;100.00
32320;BME280;19080;51.750;5.888;2024-02-21T02:50:28;101820.97;;;9.83;100.00
32320;BME280;19080;51.750;5.888;2024-02-21T02:52:55;101822.84;;;9.87;100.00
32320;BME280;19080;51.750;5.888;2024-02-21T02:55:22;101835.38;;;9.91;100.00
32320;BME280;19080;51.750;5.888;2024-02-21T02:57:49;101826.41;;;9.87;100.00
32320;BME280;19080;51.750;5.888;2024-02-21T03:00:16;101826.47;;;9.89;100.00
32320;BME280;19080;51.750;5.888;2024-02-21T03:02:46;101822.84;;;9.87;100.00
32320;BME280;19080;51.750;5.888;2024-02-21T03:05:18;101832.72;;;9.91;100.00
32320;BME280;19080;51.750;5.888;2024-02-21T03:07:46;101812.91;;;9.79;100.00
32320;BME280;19080;51.750;5.888;2024-02-21T03:10:14;101821.81;;;9.82;100.00
32320;BME280;19080;51.750;5.888;2024-02-21T03:12:44;101823.56;;;9.81;100.00
32320;BME280;19080;51.750;5.888;2024-02-21T03:15:11;101813.75;;;9.78;100.00
32320;BME280;19080;51.750;5.888;2024-02-21T03:17:39;101810.34;;;9.83;100.00
32320;BME280;19080;51.750;5.888;2024-02-21T03:20:06;101811.16;;;9.80;100.00
32320;BME280;19080;51.750;5.888;2024-02-21T03:22:37;101804.88;;;9.78;100.00
32320;BME280;19080;51.750;5.888;2024-02-21T03:25:05;101811.19;;;9.82;100.00
32320;BME280;19080;51.750;5.888;2024-02-21T03:27:33;101809.34;;;9.79;100.00
32320;BME280;19080;51.750;5.888;2024-02-21T03:30:00;101813.84;;;9.82;100.00
32320;BME280;19080;51.750;5.888;2024-02-21T03:32:26;101806.75;;;9.81;100.00
32320;BME280;19080;51.750;5.888;2024-02-21T03:34:55;101802.28;;;9.79;100.00
32320;BME280;19080;51.750;5.888;2024-02-21T03:37:22;101788.81;;;9.73;100.00
32320;BME280;19080;51.750;5.888;2024-02-21T03:39:48;101798.91;;;9.84;100.00
32320;BME280;19080;51.750;5.888;2024-02-21T03:42:15;101777.69;;;9.84;100.00
32320;BME280;19080;51.750;5.888;2024-02-21T03:44:42;101788.44;;;9.88;100.00
32320;BME280;19080;51.750;5.888;2024-02-21T03:47:08;101794.75;;;9.92;100.00
32320;BME280;19080;51.750;5.888;2024-02-21T03:49:37;101781.59;;;9.95;100.00
32320;BME280;19080;51.750;5.888;2024-02-21T03:52:04;101768.78;;;9.82;100.00
32320;BME280;19080;51.750;5.888;2024-02-21T03:54:32;101751.72;;;9.73;100.00
32320;BME280;19080;51.750;5.888;2024-02-21T03:56:58;101772.38;;;9.84;100.00
32320;BME280;19080;51.750;5.888;2024-02-21T03:59:25;101783.03;;;9.85;100.00
32320;BME280;19080;51.750;5.888;2024-02-21T04:01:52;101782.22;;;9.88;100.00
32320;BME280;19080;51.750;5.888;2024-02-21T04:04:20;101778.63;;;9.86;100.00
32320;BME280;19080;51.750;5.888;2024-02-21T04:06:48;101776.03;;;9.87;100.00
32320;BME280;19080;51.750;5.888;2024-02-21T04:09:15;101769.94;;;9.90;100.00
32320;BME280;19080;51.750;5.888;2024-02-21T04:11:42;101773.63;;;9.95;100.00
32320;BME280;19080;51.750;5.888;2024-02-21T04:14:09;101766.63;;;9.97;100.00
32320;BME280;19080;51.750;5.888;2024-02-21T04:16:37;101759.31;;;9.90;100.00
32320;BME280;19080;51.750;5.888;2024-02-21T04:19:05;101764.63;;;9.90;100.00
32320;BME280;19080;51.750;5.888;2024-02-21T04:21:32;101749.31;;;9.81;100.00
32320;BME280;19080;51.750;5.888;2024-02-21T04:23:59;101737.66;;;9.76;100.00
32320;BME280;19080;51.750;5.888;2024-02-21T04:26:26;101756.56;;;9.87;100.00
32320;BME280;19080;51.750;5.888;2024-02-21T04:28:52;101774.38;;;9.91;100.00
32320;BME280;19080;51.750;5.888;2024-02-21T04:31:19;101779.84;;;9.95;100.00
32320;BME280;19080;51.750;5.888;2024-02-21T04:33:46;101751.97;;;9.81;100.00
32320;BME280;19080;51.750;5.888;2024-02-21T04:36:13;101774.53;;;9.95;100.00
32320;BME280;19080;51.750;5.888;2024-02-21T04:38:39;101761.03;;;9.88;100.00
32320;BME280;19080;51.750;5.888;2024-02-21T04:41:07;101770.81;;;9.90;100.00
32320;BME280;19080;51.750;5.888;2024-02-21T04:43:34;101771.81;;;9.94;100.00
32320;BME280;19080;51.750;5.888;2024-02-21T04:46:01;101770.03;;;9.93;100.00
32320;BME280;19080;51.750;5.888;2024-02-21T04:48:28;101754.56;;;9.79;100.00
32320;BME280;19080;51.750;5.888;2024-02-21T04:50:55;101763.72;;;9.89;100.00
32320;BME280;19080;51.750;5.888;2024-02-21T04:53:22;101771.56;;;9.86;100.00
32320;BME280;19080;51.750;5.888;2024-02-21T04:55:48;101763.66;;;9.88;100.00
32320;BME280;19080;51.750;5.888;2024-02-21T04:58:15;101755.50;;;9.82;100.00
32320;BME280;19080;51.750;5.888;2024-02-21T05:00:42;101764.53;;;9.87;100.00
32320;BME280;19080;51.750;5.888;2024-02-21T05:03:08;101749.56;;;9.89;100.00
32320;BME280;19080;51.750;5.888;2024-02-21T05:05:35;101752.38;;;9.93;100.00
32320;BME280;19080;51.750;5.888;2024-02-21T05:08:02;101743.50;;;9.93;100.00
32320;BME280;19080;51.750;5.888;2024-02-21T05:10:29;101735.34;;;9.87;100.00
32320;BME280;19080;51.750;5.888;2024-02-21T05:12:57;101722.00;;;9.84;100.00
32320;BME280;19080;51.750;5.888;2024-02-21T05:15:24;101712.28;;;9.84;100.00
32320;BME280;19080;51.750;5.888;2024-02-21T05:17:50;101718.50;;;9.85;100.00
32320;BME280;19080;51.750;5.888;2024-02-21T05:20:17;101715.09;;;9.89;100.00
32320;BME280;19080;51.750;5.888;2024-02-21T05:22:44;101711.59;;;9.90;100.00
32320;BME280;19080;51.750;5.888;2024-02-21T05:25:11;101719.53;;;9.90;100.00
32320;BME280;19080;51.750;5.888;2024-02-21T05:27:37;101719.53;;;9.90;100.00
32320;BME280;19080;51.750;5.888;2024-02-21T05:30:05;101717.78;;;9.90;100.00
32320;BME280;19080;51.750;5.888;2024-02-21T05:32:33;101704.38;;;9.86;100.00
32320;BME280;19080;51.750;5.888;2024-02-21T05:35:00;101695.56;;;9.87;100.00
32320;BME280;19080;51.750;5.888;2024-02-21T05:37:27;101693.78;;;9.86;100.00
32320;BME280;19080;51.750;5.888;2024-02-21T05:39:54;101691.78;;;9.78;100.00
32320;BME280;19080;51.750;5.888;2024-02-21T05:42:20;101689.22;;;9.82;100.00
32320;BME280;19080;51.750;5.888;2024-02-21T05:44:47;101683.88;;;9.80;100.00
32320;BME280;19080;51.750;5.888;2024-02-21T05:47:14;101692.06;;;9.88;100.00
32320;BME280;19080;51.750;5.888;2024-02-21T05:49:42;101682.38;;;9.88;100.00
32320;BME280;19080;51.750;5.888;2024-02-21T05:52:09;101671.72;;;9.87;100.00
32320;BME280;19080;51.750;5.888;2024-02-21T05:54:39;101670.75;;;9.85;100.00
32320;BME280;19080;51.750;5.888;2024-02-21T05:57:07;101672.66;;;9.89;100.00
32320;BME280;19080;51.750;5.888;2024-02-21T05:59:34;101661.81;;;9.81;100.00
32320;BME280;19080;51.750;5.888;2024-02-21T06:02:03;101668.97;;;9.84;100.00
32320;BME280;19080;51.750;5.888;2024-02-21T06:04:31;101648.38;;;9.75;100.00
32320;BME280;19080;51.750;5.888;2024-02-21T06:06:59;101659.97;;;9.78;100.00
32320;BME280;19080;51.750;5.888;2024-02-21T06:09:25;101663.38;;;9.74;100.00
32320;BME280;19080;51.750;5.888;2024-02-21T06:11:52;101665.06;;;9.72;100.00
32320;BME280;19080;51.750;5.888;2024-02-21T06:14:19;101657.06;;;9.71;100.00
32320;BME280;19080;51.750;5.888;2024-02-21T06:16:46;101660.56;;;9.70;100.00
32320;BME280;19080;51.750;5.888;2024-02-21T06:19:13;101645.41;;;9.66;100.00
32320;BME280;19080;51.750;5.888;2024-02-21T06:21:40;101640.97;;;9.65;100.00
32320;BME280;19080;51.750;5.888;2024-02-21T06:24:06;101633.91;;;9.65;100.00
32320;BME280;19080;51.750;5.888;2024-02-21T06:26:33;101636.56;;;9.65;100.00
32320;BME280;19080;51.750;5.888;2024-02-21T06:29:00;101619.63;;;9.60;100.00
32320;BME280;19080;51.750;5.888;2024-02-21T06:31:28;101641.13;;;9.69;100.00
32320;BME280;19080;51.750;5.888;2024-02-21T06:33:55;101631.22;;;9.64;100.00
32320;BME280;19080;51.750;5.888;2024-02-21T06:36:22;101633.91;;;9.65;100.00
32320;BME280;19080;51.750;5.888;2024-02-21T06:38:49;101635.56;;;9.62;100.00
32320;BME280;19080;51.750;5.888;2024-02-21T06:41:17;101634.47;;;9.55;100.00
32320;BME280;19080;51.750;5.888;2024-02-21T06:43:48;101643.38;;;9.57;100.00
32320;BME280;19080;51.750;5.888;2024-02-21T06:46:25;101634.38;;;9.52;100.00
32320;BME280;19080;51.750;5.888;2024-02-21T06:48:53;101646.13;;;9.60;100.00
32320;BME280;19080;51.750;5.888;2024-02-21T06:51:20;101643.38;;;9.57;100.00
32320;BME280;19080;51.750;5.888;2024-02-21T06:53:46;101636.19;;;9.53;100.00
32320;BME280;19080;51.750;5.888;2024-02-21T06:56:13;101645.28;;;9.61;100.00
32320;BME280;19080;51.750;5.888;2024-02-21T06:58:40;101626.63;;;9.58;100.00
32320;BME280;19080;51.750;5.888;2024-02-21T07:01:07;101614.97;;;9.53;100.00
32320;BME280;19080;51.750;5.888;2024-02-21T07:03:34;101638.47;;;9.69;100.00
32320;BME280;19080;51.750;5.888;2024-02-21T07:06:01;101641.97;;;9.68;100.00
32320;BME280;19080;51.750;5.888;2024-02-21T07:08:28;101616.88;;;9.57;100.00
32320;BME280;19080;51.750;5.888;2024-02-21T07:10:55;101634.03;;;9.68;100.00
32320;BME280;19080;51.750;5.888;2024-02-21T07:13:22;101640.25;;;9.70;100.00
32320;BME280;19080;51.750;5.888;2024-02-21T07:15:49;101622.38;;;9.63;100.00
32320;BME280;19080;51.750;5.888;2024-02-21T07:18:16;101629.81;;;9.75;100.00
32320;BME280;19080;51.750;5.888;2024-02-21T07:20:43;101618.16;;;9.70;100.00
32320;BME280;19080;51.750;5.888;2024-02-21T07:23:10;101626.34;;;9.77;100.00
32320;BME280;19080;51.750;5.888;2024-02-21T07:25:36;101613.94;;;9.76;100.00
32320;BME280;19080;51.750;5.888;2024-02-21T07:28:03;101604.19;;;9.75;100.00
32320;BME280;19080;51.750;5.888;2024-02-21T07:30:30;101612.53;;;9.88;100.00
32320;BME280;19080;51.750;5.888;2024-02-21T07:32:57;101610.72;;;9.87;100.00
32320;BME280;19080;51.750;5.888;2024-02-21T07:35:24;101594.91;;;9.90;100.00
32320;BME280;19080;51.750;5.888;2024-02-21T07:37:51;101603.75;;;9.90;100.00
32320;BME280;19080;51.750;5.888;2024-02-21T07:40:17;101561.63;;;9.71;100.00
32320;BME280;19080;51.750;5.888;2024-02-21T07:42:44;101593.38;;;9.98;100.00
32320;BME280;19080;51.750;5.888;2024-02-21T07:45:17;101592.34;;;9.93;100.00
32320;BME280;19080;51.750;5.888;2024-02-21T07:47:44;101571.91;;;9.89;100.00
32320;BME280;19080;51.750;5.888;2024-02-21T07:50:11;101591.84;;;10.06;100.00
32320;BME280;19080;51.750;5.888;2024-02-21T07:52:38;101582.22;;;10.09;100.00
32320;BME280;19080;51.750;5.888;2024-02-21T07:55:05;101554.38;;;9.94;100.00
32320;BME280;19080;51.750;5.888;2024-02-21T07:57:32;101546.66;;;10.03;100.00
32320;BME280;19080;51.750;5.888;2024-02-21T07:59:58;101555.84;;;10.14;100.00
32320;BME280;19080;51.750;5.888;2024-02-21T08:02:25;101558.47;;;10.14;100.00
32320;BME280;19080;51.750;5.888;2024-02-21T08:04:51;101530.81;;;10.04;100.00
32320;BME280;19080;51.750;5.888;2024-02-21T08:07:18;101547.88;;;10.14;100.00
32320;BME280;19080;51.750;5.888;2024-02-21T08:09:45;101532.03;;;10.17;100.00
32320;BME280;19080;51.750;5.888;2024-02-21T08:12:12;101531.31;;;10.21;100.00
32320;BME280;19080;51.750;5.888;2024-02-21T08:14:38;101529.94;;;10.35;100.00
32320;BME280;19080;51.750;5.888;2024-02-21T08:17:05;101511.31;;;10.34;100.00
32320;BME280;19080;51.750;5.888;2024-02-21T08:19:32;101529.16;;;10.39;100.00
32320;BME280;19080;51.750;5.888;2024-02-21T08:21:59;101520.31;;;10.40;100.00
32320;BME280;19080;51.750;5.888;2024-02-21T08:24:27;101535.69;;;10.54;100.00
32320;BME280;19080;51.750;5.888;2024-02-21T08:26:53;101507.84;;;10.36;100.00
32320;BME280;19080;51.750;5.888;2024-02-21T08:29:20;101523.41;;;10.57;100.00
32320;BME280;19080;51.750;5.888;2024-02-21T08:31:47;101520.13;;;10.67;100.00
32320;BME280;19080;51.750;5.888;2024-02-21T08:34:13;101528.28;;;10.75;100.00
32320;BME280;19080;51.750;5.888;2024-02-21T08:36:40;101505.09;;;10.68;100.00
32320;BME280;19080;51.750;5.888;2024-02-21T08:39:07;101504.16;;;10.66;100.00
32320;BME280;19080;51.750;5.888;2024-02-21T08:41:36;101517.63;;;10.73;100.00
32320;BME280;19080;51.750;5.888;2024-02-21T08:44:25;101522.00;;;10.71;100.00
32320;BME280;19080;51.750;5.888;2024-02-21T08:46:54;101498.81;;;10.64;100.00
32320;BME280;19080;51.750;5.888;2024-02-21T08:49:22;101472.91;;;10.56;100.00
32320;BME280;19080;51.750;5.888;2024-02-21T08:51:49;101505.28;;;10.75;100.00
32320;BME280;19080;51.750;5.888;2024-02-21T08:54:16;101495.47;;;10.73;100.00
32320;BME280;19080;51.750;5.888;2024-02-21T08:56:43;101484.00;;;10.74;100.00
32320;BME280;19080;51.750;5.888;2024-02-21T08:59:10;101469.72;;;10.69;100.00
32320;BME280;19080;51.750;5.888;2024-02-21T09:01:37;101483.38;;;10.84;100.00
32320;BME280;19080;51.750;5.888;2024-02-21T09:04:04;101482.59;;;10.88;100.00
32320;BME280;19080;51.750;5.888;2024-02-21T09:06:32;101471.09;;;10.89;100.00
32320;BME280;19080;51.750;5.888;2024-02-21T09:09:00;101471.28;;;10.97;100.00
32320;BME280;19080;51.750;5.888;2024-02-21T09:11:27;101449.88;;;10.91;100.00
32320;BME280;19080;51.750;5.888;2024-02-21T09:13:54;101464.06;;;10.91;100.00
32320;BME280;19080;51.750;5.888;2024-02-21T09:16:21;101445.25;;;10.82;100.00
32320;BME280;19080;51.750;5.888;2024-02-21T09:18:49;101456.31;;;11.00;100.00
32320;BME280;19080;51.750;5.888;2024-02-21T09:21:16;101441.06;;;10.92;100.00
32320;BME280;19080;51.750;5.888;2024-02-21T09:23:45;101452.94;;;11.07;100.00
32320;BME280;19080;51.750;5.888;2024-02-21T09:26:12;101421.69;;;10.96;100.00
32320;BME280;19080;51.750;5.888;2024-02-21T09:28:45;101454.19;;;11.23;100.00
32320;BME280;19080;51.750;5.888;2024-02-21T09:31:12;101448.72;;;11.17;100.00
32320;BME280;19080;51.750;5.888;2024-02-21T09:33:38;101444.25;;;11.15;100.00
32320;BME280;19080;51.750;5.888;2024-02-21T09:36:06;101449.69;;;11.21;100.00
32320;BME280;19080;51.750;5.888;2024-02-21T09:38:32;101435.59;;;11.25;100.00
32320;BME280;19080;51.750;5.888;2024-02-21T09:41:16;101443.91;;;11.40;100.00
32320;BME280;19080;51.750;5.888;2024-02-21T09:43:49;101437.69;;;11.39;100.00
32320;BME280;19080;51.750;5.888;2024-02-21T09:46:18;101441.19;;;11.37;100.00
32320;BME280;19080;51.750;5.888;2024-02-21T09:51:49;101431.38;;;11.34;100.00
32320;BME280;19080;51.750;5.888;2024-02-21T09:54:17;101433.94;;;11.30;100.00
32320;BME280;19080;51.750;5.888;2024-02-21T09:56:46;101419.66;;;11.25;100.00
32320;BME280;19080;51.750;5.888;2024-02-21T09:59:16;101418.56;;;11.15;100.00
32320;BME280;19080;51.750;5.888;2024-02-21T10:01:43;101405.13;;;11.07;100.00
32320;BME280;19080;51.750;5.888;2024-02-21T10:04:11;101415.81;;;11.11;100.00
32320;BME280;19080;51.750;5.888;2024-02-21T10:06:38;101394.72;;;10.79;100.00
32320;BME280;19080;51.750;5.888;2024-02-21T10:09:06;101392.50;;;10.60;100.00
32320;BME280;19080;51.750;5.888;2024-02-21T10:11:33;101405.78;;;10.60;100.00
32320;BME280;19080;51.750;5.888;2024-02-21T10:14:05;101395.91;;;10.54;100.00
32320;BME280;19080;51.750;5.888;2024-02-21T10:16:33;101343.16;;;10.30;100.00
32320;BME280;19080;51.750;5.888;2024-02-21T10:19:00;101353.16;;;10.42;100.00
32320;BME280;19080;51.750;5.888;2024-02-21T10:21:27;101331.84;;;10.37;100.00
32320;BME280;19080;51.750;5.888;2024-02-21T10:23:54;101354.13;;;10.46;100.00
32320;BME280;19080;51.750;5.888;2024-02-21T10:26:22;101344.28;;;10.40;100.00
32320;BME280;19080;51.750;5.888;2024-02-21T10:28:49;101344.25;;;10.38;100.00
32320;BME280;19080;51.750;5.888;2024-02-21T10:31:25;101345.28;;;10.47;100.00
32320;BME280;19080;51.750;5.888;2024-02-21T10:33:56;101304.34;;;10.34;100.00
32320;BME280;19080;51.750;5.888;2024-02-21T10:36:24;101322.34;;;10.49;100.00
32320;BME280;19080;51.750;5.888;2024-02-21T10:38:52;101324.34;;;10.59;100.00
32320;BME280;19080;51.750;5.888;2024-02-21T10:41:20;101325.41;;;10.67;100.00
32320;BME280;19080;51.750;5.888;2024-02-21T10:43:52;101312.34;;;10.76;100.00
32320;BME280;19080;51.750;5.888;2024-02-21T10:46:22;101312.59;;;10.88;100.00
32320;BME280;19080;51.750;5.888;2024-02-21T10:49:10;101308.25;;;10.92;100.00
32320;BME280;19080;51.750;5.888;2024-02-21T10:51:43;101270.63;;;10.70;100.00
32320;BME280;19080;51.750;5.888;2024-02-21T10:57:08;101253.16;;;10.82;100.00
32320;BME280;19080;51.750;5.888;2024-02-21T10:59:37;101259.38;;;10.82;100.00
32320;BME280;19080;51.750;5.888;2024-02-21T11:02:06;101233.63;;;10.78;100.00
32320;BME280;19080;51.750;5.888;2024-02-21T11:04:34;101252.41;;;10.87;100.00
32320;BME280;19080;51.750;5.888;2024-02-21T11:07:06;101232.81;;;10.82;100.00
32320;BME280;19080;51.750;5.888;2024-02-21T11:09:37;101186.56;;;10.71;100.00
32320;BME280;19080;51.750;5.888;2024-02-21T11:12:05;101174.03;;;10.64;100.00
32320;BME280;19080;51.750;5.888;2024-02-21T11:14:33;101195.59;;;10.81;100.00
32320;BME280;19080;51.750;5.888;2024-02-21T11:17:02;101177.56;;;10.63;100.00
32320;BME280;19080;51.750;5.888;2024-02-21T11:19:30;101195.56;;;10.79;100.00
32320;BME280;19080;51.750;5.888;2024-02-21T11:21:58;101204.53;;;10.84;100.00
32320;BME280;19080;51.750;5.888;2024-02-21T11:24:33;101215.41;;;10.96;100.00
32320;BME280;19080;51.750;5.888;2024-02-21T11:27:09;101222.63;;;11.03;100.00
32320;BME280;19080;51.750;5.888;2024-02-21T11:29:46;101203.16;;;11.04;100.00
32320;BME280;19080;51.750;5.888;2024-02-21T11:32:17;101203.19;;;11.06;100.00
32320;BME280;19080;51.750;5.888;2024-02-21T11:35:00;101198.06;;;11.17;100.00
32320;BME280;19080;51.750;5.888;2024-02-21T11:37:35;101189.28;;;11.21;100.00
32320;BME280;19080;51.750;5.888;2024-02-21T11:40:05;101182.41;;;11.32;100.00
32320;BME280;19080;51.750;5.888;2024-02-21T11:42:38;101169.88;;;11.25;100.00
32320;BME280;19080;51.750;5.888;2024-02-21T11:45:06;101171.00;;;11.39;100.00
32320;BME280;19080;51.750;5.888;2024-02-21T11:47:33;101132.81;;;11.34;100.00
32320;BME280;19080;51.750;5.888;2024-02-21T11:50:00;101130.22;;;11.37;100.00
32320;BME280;19080;51.750;5.888;2024-02-21T11:52:27;101157.09;;;11.55;100.00
32320;BME280;19080;51.750;5.888;2024-02-21T11:54:55;101124.13;;;11.44;100.00
32320;BME280;19080;51.750;5.888;2024-02-21T11:57:31;101147.34;;;11.54;100.00
32320;BME280;19080;51.750;5.888;2024-02-21T11:59:57;101155.31;;;11.54;100.00
32320;BME280;19080;51.750;5.888;2024-02-21T12:02:30;101126.03;;;11.51;100.00
32320;BME280;19080;51.750;5.888;2024-02-21T12:04:57;101118.25;;;11.63;100.00
32320;BME280;19080;51.750;5.888;2024-02-21T12:07:24;101094.28;;;11.62;100.00
32320;BME280;19080;51.750;5.888;2024-02-21T12:09:52;101100.97;;;11.93;100.00
32320;BME280;19080;51.750;5.888;2024-02-21T12:12:22;101099.41;;;12.07;100.00
32320;BME280;19080;51.750;5.888;2024-02-21T12:14:56;101100.44;;;12.21;100.00
32320;BME280;19080;51.750;5.888;2024-02-21T12:17:25;101070.22;;;12.13;100.00
32320;BME280;19080;51.750;5.888;2024-02-21T12:19:52;101056.00;;;12.11;100.00
32320;BME280;19080;51.750;5.888;2024-02-21T12:22:19;101060.59;;;12.27;100.00
32320;BME280;19080;51.750;5.888;2024-02-21T12:24:46;101041.16;;;12.36;100.00
32320;BME280;19080;51.750;5.888;2024-02-21T12:27:14;101035.09;;;12.48;100.00
32320;BME280;19080;51.750;5.888;2024-02-21T12:29:40;101029.91;;;12.63;100.00
32320;BME280;19080;51.750;5.888;2024-02-21T12:32:07;101006.78;;;12.59;100.00
32320;BME280;19080;51.750;5.888;2024-02-21T12:34:34;101003.41;;;12.78;100.00
32320;BME280;19080;51.750;5.888;2024-02-21T12:37:18;101011.59;;;12.98;100.00
32320;BME280;19080;51.750;5.888;2024-02-21T12:39:46;101014.38;;;13.15;100.00
32320;BME280;19080;51.750;5.888;2024-02-21T12:42:13;100977.94;;;13.14;100.00
32320;BME280;19080;51.750;5.888;2024-02-21T12:44:40;100972.69;;;13.21;100.00
32320;BME280;19080;51.750;5.888;2024-02-21T12:47:08;100958.50;;;13.22;100.00
32320;BME280;19080;51.750;5.888;2024-02-21T12:49:35;100982.59;;;13.42;100.00
32320;BME280;19080;51.750;5.888;2024-02-21T12:52:03;100955.00;;;13.35;100.00
32320;BME280;19080;51.750;5.888;2024-02-21T12:54:30;100970.09;;;13.33;100.00